sensor_id;sensor_type;location;lat;lon;timestamp;pressure;altitude;pressure_sealevel;temperature;humidity
39954;BME280;25631;51.516;-0.470;2023-05-29T00:01:33;102436.54;;;12.78;29.02
39954;BME280;25631;51.516;-0.470;2023-05-29T00:04:10;102438.75;;;12.81;29.07
39954;BME280;25631;51.516;-0.470;2023-05-29T00:06:47;102440.45;;;12.99;29.08
39954;BME280;25631;51.516;-0.470;2023-05-29T00:09:24;102444.78;;;12.65;29.16
39954;BME280;25631;51.516;-0.470;2023-05-29T00:12:00;102441.51;;;12.78;29.20
39954;BME280;25631;51.516;-0.470;2023-05-29T00:14:37;102443.93;;;12.69;29.37
39954;BME280;25631;51.516;-0.470;2023-05-29T00:17:13;102447.33;;;12.47;29.40
39954;BME280;25631;51.516;-0.470;2023-05-29T00:19:50;102449.62;;;12.59;29.50
39954;BME280;25631;51.516;-0.470;2023-05-29T00:22:27;102447.13;;;12.52;29.53
39954;BME280;25631;51.516;-0.470;2023-05-29T00:25:04;102447.71;;;12.35;29.67
39954;BME280;25631;51.516;-0.470;2023-05-29T00:27:41;102450.16;;;12.20;29.91
39954;BME280;25631;51.516;-0.470;2023-05-29T00:30:17;102448.39;;;12.24;29.95
39954;BME280;25631;51.516;-0.470;2023-05-29T00:32:54;102450.27;;;11.90;30.16
39954;BME280;25631;51.516;-0.470;2023-05-29T00:35:31;102451.58;;;12.11;30.16
39954;BME280;25631;51.516;-0.470;2023-05-29T00:38:07;102456.83;;;12.00;30.34
39954;BME280;25631;51.516;-0.470;2023-05-29T00:40:44;102450.40;;;11.95;30.39
39954;BME280;25631;51.516;-0.470;2023-05-29T00:43:21;102454.92;;;12.12;30.39
39954;BME280;25631;51.516;-0.470;2023-05-29T00:45:57;102457.07;;;11.81;30.47
39954;BME280;25631;51.516;-0.470;2023-05-29T00:48:34;102455.46;;;11.79;30.50
39954;BME280;25631;51.516;-0.470;2023-05-29T00:51:12;102449.76;;;11.70;30.58
39954;BME280;25631;51.516;-0.470;2023-05-29T00:53:50;102443.71;;;11.92;30.55
39954;BME280;25631;51.516;-0.470;2023-05-29T00:56:28;102443.44;;;11.88;30.67
39954;BME280;25631;51.516;-0.470;2023-05-29T00:59:13;102445.02;;;12.03;30.69
39954;BME280;25631;51.516;-0.470;2023-05-29T01:01:50;102441.89;;;11.75;30.77
39954;BME280;25631;51.516;-0.470;2023-05-29T01:04:27;102448.18;;;11.71;30.62
39954;BME280;25631;51.516;-0.470;2023-05-29T01:07:04;102448.77;;;11.88;30.69
39954;BME280;25631;51.516;-0.470;2023-05-29T01:09:40;102450.02;;;12.02;30.69
39954;BME280;25631;51.516;-0.470;2023-05-29T01:12:31;102452.91;;;11.83;30.66
39954;BME280;25631;51.516;-0.470;2023-05-29T01:15:21;102453.95;;;11.61;30.80
39954;BME280;25631;51.516;-0.470;2023-05-29T01:18:14;102451.85;;;11.75;30.90
39954;BME280;25631;51.516;-0.470;2023-05-29T01:21:00;102453.52;;;11.45;30.81
39954;BME280;25631;51.516;-0.470;2023-05-29T01:24:17;102457.19;;;11.64;30.86
39954;BME280;25631;51.516;-0.470;2023-05-29T01:26:59;102447.91;;;11.64;30.93
39954;BME280;25631;51.516;-0.470;2023-05-29T01:29:39;102448.25;;;11.57;31.03
39954;BME280;25631;51.516;-0.470;2023-05-29T01:32:18;102442.84;;;11.55;31.18
39954;BME280;25631;51.516;-0.470;2023-05-29T01:34:57;102441.72;;;11.31;31.27
39954;BME280;25631;51.516;-0.470;2023-05-29T01:37:34;102443.20;;;11.36;31.28
39954;BME280;25631;51.516;-0.470;2023-05-29T01:40:12;102442.82;;;11.01;31.32
39954;BME280;25631;51.516;-0.470;2023-05-29T01:42:49;102445.98;;;11.52;31.30
39954;BME280;25631;51.516;-0.470;2023-05-29T01:45:26;102447.74;;;11.39;31.46
39954;BME280;25631;51.516;-0.470;2023-05-29T01:48:03;102449.39;;;11.58;31.41
39954;BME280;25631;51.516;-0.470;2023-05-29T01:50:40;102452.42;;;11.35;31.65
39954;BME280;25631;51.516;-0.470;2023-05-29T01:53:18;102453.42;;;11.11;31.61
39954;BME280;25631;51.516;-0.470;2023-05-29T01:55:55;102451.15;;;10.99;31.67
39954;BME280;25631;51.516;-0.470;2023-05-29T01:58:32;102444.89;;;11.27;31.55
39954;BME280;25631;51.516;-0.470;2023-05-29T02:01:10;102441.68;;;11.02;31.63
39954;BME280;25631;51.516;-0.470;2023-05-29T02:03:47;102440.28;;;11.02;31.68
39954;BME280;25631;51.516;-0.470;2023-05-29T02:06:24;102440.47;;;11.06;31.64
39954;BME280;25631;51.516;-0.470;2023-05-29T02:09:00;102440.38;;;11.01;31.71
39954;BME280;25631;51.516;-0.470;2023-05-29T02:11:37;102437.14;;;10.83;31.79
39954;BME280;25631;51.516;-0.470;2023-05-29T02:14:13;102440.69;;;11.06;31.80
39954;BME280;25631;51.516;-0.470;2023-05-29T02:16:50;102441.74;;;11.05;31.89
39954;BME280;25631;51.516;-0.470;2023-05-29T02:19:26;102442.65;;;10.94;31.84
39954;BME280;25631;51.516;-0.470;2023-05-29T02:22:03;102441.88;;;11.17;31.80
39954;BME280;25631;51.516;-0.470;2023-05-29T02:24:39;102440.20;;;11.06;31.80
39954;BME280;25631;51.516;-0.470;2023-05-29T02:27:16;102437.26;;;11.12;31.90
39954;BME280;25631;51.516;-0.470;2023-05-29T02:29:52;102440.66;;;10.93;32.04
39954;BME280;25631;51.516;-0.470;2023-05-29T02:32:29;102435.12;;;10.90;32.05
39954;BME280;25631;51.516;-0.470;2023-05-29T02:35:06;102434.30;;;10.91;32.04
39954;BME280;25631;51.516;-0.470;2023-05-29T02:37:43;102436.37;;;10.86;32.03
39954;BME280;25631;51.516;-0.470;2023-05-29T02:40:20;102432.95;;;10.89;32.13
39954;BME280;25631;51.516;-0.470;2023-05-29T02:42:56;102433.82;;;10.76;32.12
39954;BME280;25631;51.516;-0.470;2023-05-29T02:45:33;102434.96;;;10.87;32.13
39954;BME280;25631;51.516;-0.470;2023-05-29T02:48:10;102430.58;;;10.93;32.20
39954;BME280;25631;51.516;-0.470;2023-05-29T02:50:46;102428.71;;;10.97;32.11
39954;BME280;25631;51.516;-0.470;2023-05-29T02:53:23;102429.47;;;10.82;32.22
39954;BME280;25631;51.516;-0.470;2023-05-29T02:55:59;102433.63;;;11.24;32.25
39954;BME280;25631;51.516;-0.470;2023-05-29T02:58:36;102433.22;;;10.87;32.27
39954;BME280;25631;51.516;-0.470;2023-05-29T03:01:12;102434.39;;;10.74;32.27
39954;BME280;25631;51.516;-0.470;2023-05-29T03:03:49;102436.00;;;10.77;32.38
39954;BME280;25631;51.516;-0.470;2023-05-29T03:06:25;102436.39;;;10.56;32.34
39954;BME280;25631;51.516;-0.470;2023-05-29T03:09:02;102433.29;;;10.75;32.30
39954;BME280;25631;51.516;-0.470;2023-05-29T03:11:39;102430.54;;;10.44;32.29
39954;BME280;25631;51.516;-0.470;2023-05-29T03:14:16;102429.58;;;10.64;32.40
39954;BME280;25631;51.516;-0.470;2023-05-29T03:16:53;102434.61;;;10.98;32.30
39954;BME280;25631;51.516;-0.470;2023-05-29T03:19:29;102438.53;;;10.46;32.27
39954;BME280;25631;51.516;-0.470;2023-05-29T03:22:06;102437.62;;;10.56;32.30
39954;BME280;25631;51.516;-0.470;2023-05-29T03:24:42;102435.69;;;10.60;32.30
39954;BME280;25631;51.516;-0.470;2023-05-29T03:27:19;102440.66;;;10.46;32.38
39954;BME280;25631;51.516;-0.470;2023-05-29T03:29:55;102439.29;;;10.58;32.41
39954;BME280;25631;51.516;-0.470;2023-05-29T03:32:31;102437.97;;;10.72;32.48
39954;BME280;25631;51.516;-0.470;2023-05-29T03:35:08;102436.43;;;10.44;32.57
39954;BME280;25631;51.516;-0.470;2023-05-29T03:37:45;102434.44;;;10.31;32.52
39954;BME280;25631;51.516;-0.470;2023-05-29T03:40:21;102438.32;;;10.79;32.54
39954;BME280;25631;51.516;-0.470;2023-05-29T03:42:57;102442.41;;;10.53;32.57
39954;BME280;25631;51.516;-0.470;2023-05-29T03:45:34;102447.26;;;10.77;32.60
39954;BME280;25631;51.516;-0.470;2023-05-29T03:48:11;102446.33;;;10.52;32.71
39954;BME280;25631;51.516;-0.470;2023-05-29T03:50:47;102446.36;;;10.53;32.94
39954;BME280;25631;51.516;-0.470;2023-05-29T03:53:24;102445.07;;;10.46;32.94
39954;BME280;25631;51.516;-0.470;2023-05-29T03:56:00;102445.84;;;10.40;32.94
39954;BME280;25631;51.516;-0.470;2023-05-29T03:58:36;102445.53;;;10.25;33.08
39954;BME280;25631;51.516;-0.470;2023-05-29T04:01:13;102445.67;;;10.34;33.03
39954;BME280;25631;51.516;-0.470;2023-05-29T04:03:49;102446.11;;;9.94;33.16
39954;BME280;25631;51.516;-0.470;2023-05-29T04:06:26;102446.58;;;10.19;33.10
39954;BME280;25631;51.516;-0.470;2023-05-29T04:09:03;102445.71;;;10.27;33.09
39954;BME280;25631;51.516;-0.470;2023-05-29T04:11:39;102449.54;;;10.38;33.13
39954;BME280;25631;51.516;-0.470;2023-05-29T04:14:16;102448.32;;;10.17;33.13
39954;BME280;25631;51.516;-0.470;2023-05-29T04:16:53;102450.82;;;10.04;33.22
39954;BME280;25631;51.516;-0.470;2023-05-29T04:19:29;102451.07;;;9.90;33.22
39954;BME280;25631;51.516;-0.470;2023-05-29T04:22:05;102451.27;;;10.07;33.15
39954;BME280;25631;51.516;-0.470;2023-05-29T04:24:42;102452.99;;;10.19;33.14
39954;BME280;25631;51.516;-0.470;2023-05-29T04:27:19;102452.33;;;10.23;33.18
39954;BME280;25631;51.516;-0.470;2023-05-29T04:29:55;102453.95;;;10.18;33.17
39954;BME280;25631;51.516;-0.470;2023-05-29T04:32:32;102462.30;;;10.09;33.24
39954;BME280;25631;51.516;-0.470;2023-05-29T04:35:09;102462.13;;;9.91;33.17
39954;BME280;25631;51.516;-0.470;2023-05-29T04:37:46;102463.35;;;9.72;33.17
39954;BME280;25631;51.516;-0.470;2023-05-29T04:40:22;102461.59;;;10.06;33.10
39954;BME280;25631;51.516;-0.470;2023-05-29T04:42:59;102463.62;;;9.95;33.17
39954;BME280;25631;51.516;-0.470;2023-05-29T04:45:35;102461.26;;;9.91;33.23
39954;BME280;25631;51.516;-0.470;2023-05-29T04:48:12;102465.42;;;9.90;33.27
39954;BME280;25631;51.516;-0.470;2023-05-29T04:50:48;102466.05;;;10.03;33.27
39954;BME280;25631;51.516;-0.470;2023-05-29T04:53:25;102468.09;;;10.02;33.26
39954;BME280;25631;51.516;-0.470;2023-05-29T04:56:01;102467.11;;;10.05;33.09
39954;BME280;25631;51.516;-0.470;2023-05-29T04:58:37;102466.24;;;10.28;33.07
39954;BME280;25631;51.516;-0.470;2023-05-29T05:01:14;102467.45;;;10.27;33.03
39954;BME280;25631;51.516;-0.470;2023-05-29T05:03:51;102467.57;;;10.09;33.07
39954;BME280;25631;51.516;-0.470;2023-05-29T05:06:27;102469.13;;;10.22;33.08
39954;BME280;25631;51.516;-0.470;2023-05-29T05:09:04;102473.46;;;10.29;33.07
39954;BME280;25631;51.516;-0.470;2023-05-29T05:11:40;102472.93;;;10.18;33.00
39954;BME280;25631;51.516;-0.470;2023-05-29T05:14:17;102472.24;;;10.20;32.97
39954;BME280;25631;51.516;-0.470;2023-05-29T05:16:53;102471.01;;;10.42;32.86
39954;BME280;25631;51.516;-0.470;2023-05-29T05:19:30;102469.99;;;10.24;32.80
39954;BME280;25631;51.516;-0.470;2023-05-29T05:22:07;102468.34;;;10.17;32.70
39954;BME280;25631;51.516;-0.470;2023-05-29T05:24:43;102472.25;;;10.39;32.64
39954;BME280;25631;51.516;-0.470;2023-05-29T05:27:20;102474.74;;;10.58;32.47
39954;BME280;25631;51.516;-0.470;2023-05-29T05:29:57;102475.73;;;10.45;32.36
39954;BME280;25631;51.516;-0.470;2023-05-29T05:32:33;102476.10;;;10.66;32.32
39954;BME280;25631;51.516;-0.470;2023-05-29T05:35:10;102479.65;;;10.83;32.27
39954;BME280;25631;51.516;-0.470;2023-05-29T05:37:46;102478.98;;;10.70;32.33
39954;BME280;25631;51.516;-0.470;2023-05-29T05:40:22;102479.57;;;10.80;32.38
39954;BME280;25631;51.516;-0.470;2023-05-29T05:42:59;102484.35;;;10.84;32.39
39954;BME280;25631;51.516;-0.470;2023-05-29T05:45:35;102483.49;;;10.88;32.42
39954;BME280;25631;51.516;-0.470;2023-05-29T05:48:12;102478.55;;;11.05;32.31
39954;BME280;25631;51.516;-0.470;2023-05-29T05:50:48;102480.65;;;11.11;32.12
39954;BME280;25631;51.516;-0.470;2023-05-29T05:53:25;102489.60;;;11.14;31.92
39954;BME280;25631;51.516;-0.470;2023-05-29T05:56:02;102490.45;;;11.13;31.74
39954;BME280;25631;51.516;-0.470;2023-05-29T05:58:39;102495.16;;;10.96;31.66
39954;BME280;25631;51.516;-0.470;2023-05-29T06:01:15;102497.46;;;11.23;31.60
39954;BME280;25631;51.516;-0.470;2023-05-29T06:03:52;102498.66;;;11.19;31.62
39954;BME280;25631;51.516;-0.470;2023-05-29T06:06:28;102499.76;;;11.00;31.54
39954;BME280;25631;51.516;-0.470;2023-05-29T06:09:05;102506.52;;;10.78;31.54
39954;BME280;25631;51.516;-0.470;2023-05-29T06:11:41;102511.62;;;10.88;31.71
39954;BME280;25631;51.516;-0.470;2023-05-29T06:14:18;102509.92;;;11.16;31.72
39954;BME280;25631;51.516;-0.470;2023-05-29T06:16:54;102504.29;;;11.26;31.62
39954;BME280;25631;51.516;-0.470;2023-05-29T06:19:36;102509.90;;;11.20;31.59
39954;BME280;25631;51.516;-0.470;2023-05-29T06:22:13;102509.77;;;11.15;31.35
39954;BME280;25631;51.516;-0.470;2023-05-29T06:24:50;102511.64;;;11.29;31.27
39954;BME280;25631;51.516;-0.470;2023-05-29T06:27:26;102509.13;;;11.09;31.04
39954;BME280;25631;51.516;-0.470;2023-05-29T06:30:03;102518.80;;;11.20;31.11
39954;BME280;25631;51.516;-0.470;2023-05-29T06:32:40;102518.85;;;10.97;30.64
39954;BME280;25631;51.516;-0.470;2023-05-29T06:35:16;102519.47;;;11.26;30.52
39954;BME280;25631;51.516;-0.470;2023-05-29T06:37:53;102530.85;;;11.20;30.69
39954;BME280;25631;51.516;-0.470;2023-05-29T06:40:30;102525.87;;;11.24;30.63
39954;BME280;25631;51.516;-0.470;2023-05-29T06:43:06;102526.56;;;10.97;30.62
39954;BME280;25631;51.516;-0.470;2023-05-29T06:45:43;102527.64;;;11.50;30.66
39954;BME280;25631;51.516;-0.470;2023-05-29T06:48:20;102529.73;;;11.47;30.60
39954;BME280;25631;51.516;-0.470;2023-05-29T06:50:57;102533.46;;;11.52;30.55
39954;BME280;25631;51.516;-0.470;2023-05-29T06:53:34;102531.75;;;11.39;30.64
39954;BME280;25631;51.516;-0.470;2023-05-29T06:56:11;102533.76;;;11.60;30.48
39954;BME280;25631;51.516;-0.470;2023-05-29T06:58:47;102528.62;;;11.76;30.05
39954;BME280;25631;51.516;-0.470;2023-05-29T07:01:24;102532.51;;;11.30;29.76
39954;BME280;25631;51.516;-0.470;2023-05-29T07:04:00;102528.61;;;11.92;29.59
39954;BME280;25631;51.516;-0.470;2023-05-29T07:06:37;102525.58;;;11.69;29.38
39954;BME280;25631;51.516;-0.470;2023-05-29T07:09:13;102519.94;;;11.46;29.32
39954;BME280;25631;51.516;-0.470;2023-05-29T07:11:50;102512.87;;;11.53;29.27
39954;BME280;25631;51.516;-0.470;2023-05-29T07:14:26;102513.49;;;11.85;29.27
39954;BME280;25631;51.516;-0.470;2023-05-29T07:17:03;102512.08;;;11.90;28.98
39954;BME280;25631;51.516;-0.470;2023-05-29T07:19:39;102516.03;;;11.72;28.90
39954;BME280;25631;51.516;-0.470;2023-05-29T07:22:16;102525.58;;;11.71;28.65
39954;BME280;25631;51.516;-0.470;2023-05-29T07:24:52;102519.50;;;11.60;28.75
39954;BME280;25631;51.516;-0.470;2023-05-29T07:27:29;102516.02;;;11.66;28.83
39954;BME280;25631;51.516;-0.470;2023-05-29T07:30:07;102515.72;;;11.68;28.92
39954;BME280;25631;51.516;-0.470;2023-05-29T07:32:44;102523.57;;;11.94;28.96
39954;BME280;25631;51.516;-0.470;2023-05-29T07:35:20;102525.42;;;11.86;28.89
39954;BME280;25631;51.516;-0.470;2023-05-29T07:37:57;102527.98;;;11.71;28.91
39954;BME280;25631;51.516;-0.470;2023-05-29T07:40:33;102534.49;;;11.91;29.00
39954;BME280;25631;51.516;-0.470;2023-05-29T07:43:10;102525.57;;;11.75;28.93
39954;BME280;25631;51.516;-0.470;2023-05-29T07:45:46;102526.53;;;12.34;28.86
39954;BME280;25631;51.516;-0.470;2023-05-29T07:48:23;102528.92;;;12.05;28.77
39954;BME280;25631;51.516;-0.470;2023-05-29T07:51:00;102535.15;;;12.28;28.74
39954;BME280;25631;51.516;-0.470;2023-05-29T07:53:36;102539.58;;;12.38;28.49
39954;BME280;25631;51.516;-0.470;2023-05-29T07:56:13;102537.08;;;12.33;28.48
39954;BME280;25631;51.516;-0.470;2023-05-29T07:58:49;102537.38;;;12.52;28.48
39954;BME280;25631;51.516;-0.470;2023-05-29T08:01:26;102534.73;;;12.49;28.42
39954;BME280;25631;51.516;-0.470;2023-05-29T08:04:03;102529.23;;;12.18;28.47
39954;BME280;25631;51.516;-0.470;2023-05-29T08:06:39;102532.09;;;12.53;28.28
39954;BME280;25631;51.516;-0.470;2023-05-29T08:09:16;102532.09;;;12.52;27.98
39954;BME280;25631;51.516;-0.470;2023-05-29T08:11:52;102533.82;;;12.48;27.79
39954;BME280;25631;51.516;-0.470;2023-05-29T08:14:29;102535.43;;;12.25;27.77
39954;BME280;25631;51.516;-0.470;2023-05-29T08:17:06;102536.73;;;12.26;27.60
39954;BME280;25631;51.516;-0.470;2023-05-29T08:19:42;102531.09;;;12.37;27.66
39954;BME280;25631;51.516;-0.470;2023-05-29T08:22:19;102536.12;;;12.30;27.82
39954;BME280;25631;51.516;-0.470;2023-05-29T08:24:55;102538.06;;;12.69;27.65
39954;BME280;25631;51.516;-0.470;2023-05-29T08:27:32;102542.78;;;12.43;27.65
39954;BME280;25631;51.516;-0.470;2023-05-29T08:30:10;102544.68;;;12.29;27.74
39954;BME280;25631;51.516;-0.470;2023-05-29T08:32:47;102542.97;;;12.56;27.66
39954;BME280;25631;51.516;-0.470;2023-05-29T08:35:23;102542.48;;;12.53;27.90
39954;BME280;25631;51.516;-0.470;2023-05-29T08:38:00;102545.87;;;12.82;27.84
39954;BME280;25631;51.516;-0.470;2023-05-29T08:40:37;102544.57;;;12.94;27.72
39954;BME280;25631;51.516;-0.470;2023-05-29T08:43:16;102542.28;;;12.65;27.84
39954;BME280;25631;51.516;-0.470;2023-05-29T08:45:55;102539.26;;;12.97;27.66
39954;BME280;25631;51.516;-0.470;2023-05-29T08:48:33;102539.38;;;13.19;27.67
39954;BME280;25631;51.516;-0.470;2023-05-29T08:51:12;102545.05;;;12.92;27.29
39954;BME280;25631;51.516;-0.470;2023-05-29T08:53:51;102541.08;;;12.74;26.92
39954;BME280;25631;51.516;-0.470;2023-05-29T08:56:28;102542.78;;;13.06;26.96
39954;BME280;25631;51.516;-0.470;2023-05-29T08:59:11;102539.65;;;13.22;26.96
39954;BME280;25631;51.516;-0.470;2023-05-29T09:01:47;102538.77;;;13.22;27.28
39954;BME280;25631;51.516;-0.470;2023-05-29T09:04:24;102535.83;;;13.42;26.74
39954;BME280;25631;51.516;-0.470;2023-05-29T09:07:00;102528.38;;;13.41;26.55
39954;BME280;25631;51.516;-0.470;2023-05-29T09:09:37;102528.17;;;13.62;26.58
39954;BME280;25631;51.516;-0.470;2023-05-29T09:12:13;102529.52;;;13.82;26.19
39954;BME280;25631;51.516;-0.470;2023-05-29T09:14:50;102532.00;;;13.88;26.24
39954;BME280;25631;51.516;-0.470;2023-05-29T09:17:30;102528.37;;;13.87;26.45
39954;BME280;25631;51.516;-0.470;2023-05-29T09:20:14;102538.39;;;14.03;26.39
39954;BME280;25631;51.516;-0.470;2023-05-29T09:22:55;102534.19;;;14.56;26.23
39954;BME280;25631;51.516;-0.470;2023-05-29T09:25:33;102541.40;;;14.37;25.92
39954;BME280;25631;51.516;-0.470;2023-05-29T09:28:11;102542.93;;;14.04;26.04
39954;BME280;25631;51.516;-0.470;2023-05-29T09:30:47;102543.22;;;13.93;25.69
39954;BME280;25631;51.516;-0.470;2023-05-29T09:33:25;102542.77;;;14.46;25.83
39954;BME280;25631;51.516;-0.470;2023-05-29T09:36:02;102548.31;;;14.53;26.03
39954;BME280;25631;51.516;-0.470;2023-05-29T09:38:38;102555.51;;;14.08;25.76
39954;BME280;25631;51.516;-0.470;2023-05-29T09:41:21;102548.86;;;14.35;25.79
39954;BME280;25631;51.516;-0.470;2023-05-29T09:44:00;102550.47;;;14.58;25.72
39954;BME280;25631;51.516;-0.470;2023-05-29T09:46:37;102551.26;;;14.44;25.70
39954;BME280;25631;51.516;-0.470;2023-05-29T09:49:24;102544.49;;;14.37;25.53
39954;BME280;25631;51.516;-0.470;2023-05-29T09:52:01;102555.45;;;14.67;25.64
39954;BME280;25631;51.516;-0.470;2023-05-29T09:54:38;102550.00;;;14.57;25.37
39954;BME280;25631;51.516;-0.470;2023-05-29T09:57:16;102548.60;;;14.56;25.78
39954;BME280;25631;51.516;-0.470;2023-05-29T09:59:53;102548.00;;;14.61;25.39
39954;BME280;25631;51.516;-0.470;2023-05-29T10:02:31;102552.52;;;14.86;25.81
39954;BME280;25631;51.516;-0.470;2023-05-29T10:05:08;102553.04;;;14.92;25.30
39954;BME280;25631;51.516;-0.470;2023-05-29T10:07:46;102545.52;;;14.90;25.42
39954;BME280;25631;51.516;-0.470;2023-05-29T10:10:24;102554.12;;;15.28;25.39
39954;BME280;25631;51.516;-0.470;2023-05-29T10:13:03;102555.96;;;15.23;25.50
39954;BME280;25631;51.516;-0.470;2023-05-29T10:15:44;102564.73;;;15.21;25.02
39954;BME280;25631;51.516;-0.470;2023-05-29T10:18:23;102560.04;;;15.40;24.95
39954;BME280;25631;51.516;-0.470;2023-05-29T10:21:00;102555.61;;;15.26;25.20
39954;BME280;25631;51.516;-0.470;2023-05-29T10:23:38;102563.18;;;15.37;25.09
39954;BME280;25631;51.516;-0.470;2023-05-29T10:26:20;102560.96;;;15.48;25.20
39954;BME280;25631;51.516;-0.470;2023-05-29T10:29:03;102554.42;;;15.67;25.05
39954;BME280;25631;51.516;-0.470;2023-05-29T10:31:48;102564.97;;;15.83;24.97
39954;BME280;25631;51.516;-0.470;2023-05-29T10:34:37;102551.35;;;15.56;24.73
39954;BME280;25631;51.516;-0.470;2023-05-29T10:37:25;102556.47;;;15.69;24.31
39954;BME280;25631;51.516;-0.470;2023-05-29T10:40:07;102561.76;;;15.74;24.22
39954;BME280;25631;51.516;-0.470;2023-05-29T10:42:45;102557.14;;;15.55;24.29
39954;BME280;25631;51.516;-0.470;2023-05-29T10:45:55;102550.98;;;15.62;24.40
39954;BME280;25631;51.516;-0.470;2023-05-29T10:48:40;102552.88;;;16.01;24.22
39954;BME280;25631;51.516;-0.470;2023-05-29T10:51:26;102548.66;;;15.67;24.20
39954;BME280;25631;51.516;-0.470;2023-05-29T10:54:06;102549.04;;;15.90;24.57
39954;BME280;25631;51.516;-0.470;2023-05-29T10:56:44;102539.31;;;15.95;24.47
39954;BME280;25631;51.516;-0.470;2023-05-29T10:59:27;102542.75;;;16.08;24.41
39954;BME280;25631;51.516;-0.470;2023-05-29T11:02:09;102534.78;;;15.96;24.49
39954;BME280;25631;51.516;-0.470;2023-05-29T11:05:05;102535.34;;;15.86;24.06
39954;BME280;25631;51.516;-0.470;2023-05-29T11:07:55;102537.93;;;16.15;24.14
39954;BME280;25631;51.516;-0.470;2023-05-29T11:11:04;102534.39;;;16.08;24.05
39954;BME280;25631;51.516;-0.470;2023-05-29T11:13:41;102535.90;;;16.28;23.90
39954;BME280;25631;51.516;-0.470;2023-05-29T11:16:35;102535.76;;;16.48;24.01
39954;BME280;25631;51.516;-0.470;2023-05-29T11:19:12;102531.25;;;16.52;23.71
39954;BME280;25631;51.516;-0.470;2023-05-29T11:22:04;102538.25;;;16.38;23.85
39954;BME280;25631;51.516;-0.470;2023-05-29T11:24:44;102530.98;;;16.45;23.89
39954;BME280;25631;51.516;-0.470;2023-05-29T11:27:23;102543.34;;;16.41;23.74
39954;BME280;25631;51.516;-0.470;2023-05-29T11:30:00;102542.14;;;16.73;23.80
39954;BME280;25631;51.516;-0.470;2023-05-29T11:32:39;102534.84;;;16.68;23.46
39954;BME280;25631;51.516;-0.470;2023-05-29T11:35:19;102535.09;;;16.77;23.46
39954;BME280;25631;51.516;-0.470;2023-05-29T11:37:58;102540.46;;;16.87;23.57
39954;BME280;25631;51.516;-0.470;2023-05-29T11:40:37;102531.57;;;17.18;23.20
39954;BME280;25631;51.516;-0.470;2023-05-29T11:43:13;102540.20;;;17.19;23.15
39954;BME280;25631;51.516;-0.470;2023-05-29T11:45:50;102539.76;;;17.04;23.13
39954;BME280;25631;51.516;-0.470;2023-05-29T11:48:27;102538.05;;;17.26;23.07
39954;BME280;25631;51.516;-0.470;2023-05-29T11:51:03;102523.61;;;17.25;23.13
39954;BME280;25631;51.516;-0.470;2023-05-29T11:53:41;102534.12;;;17.04;23.01
39954;BME280;25631;51.516;-0.470;2023-05-29T11:56:18;102528.34;;;17.43;22.89
39954;BME280;25631;51.516;-0.470;2023-05-29T11:58:58;102536.34;;;17.63;23.06
39954;BME280;25631;51.516;-0.470;2023-05-29T12:01:35;102526.21;;;17.36;22.68
39954;BME280;25631;51.516;-0.470;2023-05-29T12:04:22;102525.86;;;17.67;22.71
39954;BME280;25631;51.516;-0.470;2023-05-29T12:06:59;102521.86;;;17.67;22.76
39954;BME280;25631;51.516;-0.470;2023-05-29T12:09:35;102513.58;;;17.85;22.60
39954;BME280;25631;51.516;-0.470;2023-05-29T12:12:18;102508.31;;;17.82;22.58
39954;BME280;25631;51.516;-0.470;2023-05-29T12:14:55;102523.29;;;17.83;22.58
39954;BME280;25631;51.516;-0.470;2023-05-29T12:17:31;102506.19;;;18.08;22.39
39954;BME280;25631;51.516;-0.470;2023-05-29T12:20:11;102511.60;;;17.74;21.94
39954;BME280;25631;51.516;-0.470;2023-05-29T12:22:48;102509.59;;;18.09;21.76
39954;BME280;25631;51.516;-0.470;2023-05-29T12:25:25;102501.67;;;18.10;21.99
39954;BME280;25631;51.516;-0.470;2023-05-29T12:28:02;102509.94;;;17.82;21.66
39954;BME280;25631;51.516;-0.470;2023-05-29T12:30:39;102506.97;;;17.90;21.84
39954;BME280;25631;51.516;-0.470;2023-05-29T12:33:28;102500.70;;;18.18;21.91
39954;BME280;25631;51.516;-0.470;2023-05-29T12:36:08;102506.52;;;18.04;22.01
39954;BME280;25631;51.516;-0.470;2023-05-29T12:38:47;102502.76;;;18.14;21.66
39954;BME280;25631;51.516;-0.470;2023-05-29T12:41:26;102507.76;;;18.06;21.56
39954;BME280;25631;51.516;-0.470;2023-05-29T12:44:05;102507.07;;;18.04;21.47
39954;BME280;25631;51.516;-0.470;2023-05-29T12:46:42;102500.31;;;18.58;21.56
39954;BME280;25631;51.516;-0.470;2023-05-29T12:49:26;102504.41;;;18.40;21.97
39954;BME280;25631;51.516;-0.470;2023-05-29T12:52:08;102505.05;;;18.68;21.82
39954;BME280;25631;51.516;-0.470;2023-05-29T12:54:46;102504.02;;;18.95;21.42
39954;BME280;25631;51.516;-0.470;2023-05-29T12:57:22;102496.36;;;18.99;21.43
39954;BME280;25631;51.516;-0.470;2023-05-29T12:59:59;102497.58;;;19.08;21.60
39954;BME280;25631;51.516;-0.470;2023-05-29T13:02:36;102501.70;;;18.86;21.61
39954;BME280;25631;51.516;-0.470;2023-05-29T13:05:12;102502.74;;;18.89;21.08
39954;BME280;25631;51.516;-0.470;2023-05-29T13:07:50;102501.35;;;19.15;21.44
39954;BME280;25631;51.516;-0.470;2023-05-29T13:10:28;102500.48;;;19.08;21.56
39954;BME280;25631;51.516;-0.470;2023-05-29T13:13:04;102506.45;;;19.33;21.39
39954;BME280;25631;51.516;-0.470;2023-05-29T13:15:41;102506.46;;;19.11;20.71
39954;BME280;25631;51.516;-0.470;2023-05-29T13:18:17;102505.20;;;19.05;20.86
39954;BME280;25631;51.516;-0.470;2023-05-29T13:20:54;102511.98;;;19.40;21.02
39954;BME280;25631;51.516;-0.470;2023-05-29T13:23:30;102505.35;;;19.23;20.85
39954;BME280;25631;51.516;-0.470;2023-05-29T13:26:13;102503.34;;;19.26;20.95
39954;BME280;25631;51.516;-0.470;2023-05-29T13:28:51;102510.22;;;19.23;20.99
39954;BME280;25631;51.516;-0.470;2023-05-29T13:31:29;102506.14;;;19.41;21.02
39954;BME280;25631;51.516;-0.470;2023-05-29T13:34:05;102505.38;;;19.70;21.04
39954;BME280;25631;51.516;-0.470;2023-05-29T13:36:42;102510.38;;;19.85;21.22